createdAt,value
2022-08-02T00:00:01.533Z,64.75
2022-08-02T00:01:24.515Z,62.77
2022-08-02T00:02:27.466Z,61.92
2022-08-02T00:03:30.803Z,62.69
2022-08-02T00:04:33.844Z,64.30
2022-08-02T00:05:37.399Z,64.68
2022-08-02T00:06:40.290Z,63.94
2022-08-02T00:07:43.214Z,61.25
2022-08-02T00:08:46.063Z,61.89
2022-08-02T00:09:49.022Z,63.03
2022-08-02T00:10:51.861Z,64.57
2022-08-02T00:11:54.710Z,64.38
2022-08-02T00:12:57.636Z,63.94
2022-08-02T00:14:00.470Z,63.64
2022-08-02T00:15:04.119Z,64.93
2022-08-02T00:16:06.929Z,64.63
2022-08-02T00:17:09.799Z,65.59
2022-08-02T00:18:12.609Z,64.07
2022-08-02T00:19:15.471Z,64.44
2022-08-02T00:20:18.690Z,65.00
2022-08-02T00:21:21.592Z,65.65
2022-08-02T00:22:24.483Z,66.33
2022-08-02T00:23:27.372Z,66.20
2022-08-02T00:24:30.905Z,65.06
2022-08-02T00:25:34.117Z,66.16
2022-08-02T00:26:36.991Z,65.21
2022-08-02T00:27:39.780Z,64.15
2022-08-02T00:28:42.783Z,64.54
2022-08-02T00:29:52.583Z,64.83
2022-08-02T00:30:57.817Z,65.57
2022-08-02T00:32:00.685Z,65.87
2022-08-02T00:33:05.198Z,65.44
2022-08-02T00:34:28.467Z,66.33
2022-08-02T00:35:33.071Z,67.05
2022-08-02T00:36:35.913Z,65.59
2022-08-02T00:37:39.594Z,65.87
2022-08-02T00:38:42.391Z,66.87
2022-08-02T00:39:46.037Z,65.99
2022-08-02T00:40:49.414Z,67.35
2022-08-02T00:41:53.264Z,66.66
2022-08-02T00:43:09.676Z,66.03
2022-08-02T00:44:12.764Z,65.90
2022-08-02T00:45:15.719Z,66.45
2022-08-02T00:46:19.417Z,67.11
2022-08-02T00:47:22.292Z,65.90
2022-08-02T00:48:25.090Z,66.13
2022-08-02T00:49:28.151Z,66.43
2022-08-02T00:50:31.718Z,65.68
2022-08-02T00:51:34.712Z,66.11
2022-08-02T00:52:37.646Z,66.18
2022-08-02T00:53:40.966Z,65.45
2022-08-02T00:54:43.788Z,64.90
2022-08-02T00:55:46.707Z,66.10
2022-08-02T00:56:51.173Z,65.16
2022-08-02T00:57:54.296Z,66.51
2022-08-02T00:58:57.218Z,67.64
2022-08-02T00:59:59.976Z,68.56
2022-08-02T01:01:03.641Z,68.77
2022-08-02T01:02:06.554Z,68.99
2022-08-02T01:03:09.485Z,67.57
2022-08-02T01:04:13.129Z,67.75
2022-08-02T01:05:16.261Z,66.19
2022-08-02T01:06:19.106Z,65.26
2022-08-02T01:07:21.856Z,65.84
2022-08-02T01:08:29.389Z,68.09
2022-08-02T01:09:34.550Z,68.98
2022-08-02T01:10:37.485Z,69.06
2022-08-02T01:11:40.294Z,69.19
2022-08-02T01:12:43.191Z,69.18
2022-08-02T01:13:46.625Z,68.14
2022-08-02T01:14:53.600Z,68.20
2022-08-02T01:16:00.673Z,69.18
2022-08-02T01:17:08.666Z,68.44
2022-08-02T01:18:24.670Z,68.22
2022-08-02T01:19:46.168Z,67.59
2022-08-02T01:21:07.393Z,69.09
2022-08-02T01:22:20.165Z,68.87
2022-08-02T01:23:32.066Z,67.97
2022-08-02T01:24:49.364Z,69.27
2022-08-02T01:26:01.348Z,69.28
2022-08-02T01:27:06.930Z,70.35
2022-08-02T01:28:27.848Z,70.74
2022-08-02T01:29:34.542Z,68.86
2022-08-02T01:32:14.854Z,67.51
2022-08-02T01:33:19.655Z,66.54
2022-08-02T01:34:29.655Z,67.21
2022-08-02T01:35:50.533Z,68.75
2022-08-02T01:36:57.225Z,68.04
2022-08-02T01:38:14.551Z,69.18
2022-08-02T01:39:26.830Z,68.65
2022-08-02T01:40:37.614Z,69.81
2022-08-02T01:41:41.438Z,69.09
2022-08-02T01:42:47.180Z,68.96
2022-08-02T01:43:52.509Z,69.81
2022-08-02T01:44:57.006Z,69.91
2022-08-02T01:46:00.714Z,70.13
2022-08-02T01:47:05.768Z,70.34
2022-08-02T01:48:09.929Z,70.36
2022-08-02T01:49:20.377Z,71.05
2022-08-02T01:50:26.145Z,69.74
2022-08-02T01:51:47.787Z,70.90
2022-08-02T01:52:54.535Z,69.91
2022-08-02T01:53:57.392Z,70.67
2022-08-02T01:55:19.021Z,70.39
2022-08-02T01:56:22.290Z,68.90
2022-08-02T01:57:26.379Z,68.92
2022-08-02T01:58:35.058Z,69.56
2022-08-02T01:59:38.370Z,69.47
2022-08-02T02:00:41.801Z,71.05
2022-08-02T02:01:46.123Z,69.74
2022-08-02T02:02:49.711Z,70.80
2022-08-02T02:03:52.765Z,69.90
2022-08-02T02:04:58.041Z,68.76
2022-08-02T02:06:02.454Z,69.83
2022-08-02T02:07:06.210Z,70.08
2022-08-02T02:08:09.628Z,67.69
2022-08-02T02:09:14.506Z,68.09
2022-08-02T02:10:19.302Z,69.18
2022-08-02T02:12:14.110Z,69.53
2022-08-02T02:12:47.854Z,68.90
2022-08-02T02:13:50.823Z,69.36
2022-08-02T02:14:54.760Z,68.98
2022-08-02T02:15:58.682Z,69.42
2022-08-02T02:17:03.382Z,69.10
2022-08-02T02:18:12.547Z,69.85
2022-08-02T02:19:21.310Z,69.99
2022-08-02T02:20:25.689Z,69.53
2022-08-02T02:21:29.055Z,68.99
2022-08-02T02:22:34.329Z,68.82
2022-08-02T02:23:37.975Z,69.20
2022-08-02T02:24:40.889Z,69.78
2022-08-02T02:25:46.815Z,70.61
2022-08-02T02:26:52.297Z,71.38
2022-08-02T02:28:00.786Z,72.12
2022-08-02T02:29:05.210Z,71.75
2022-08-02T02:30:08.437Z,71.91
2022-08-02T02:31:14.100Z,72.28
2022-08-02T02:32:18.040Z,70.16
2022-08-02T02:33:26.292Z,70.14
2022-08-02T02:34:37.852Z,69.17
2022-08-02T02:35:42.227Z,70.11
2022-08-02T02:36:49.630Z,69.36
2022-08-02T02:37:53.060Z,71.01
2022-08-02T02:38:57.452Z,70.67
2022-08-02T02:40:01.163Z,71.40
2022-08-02T02:41:06.852Z,72.17
2022-08-02T02:42:13.615Z,72.04
2022-08-02T02:43:17.530Z,71.86
2022-08-02T02:44:21.442Z,72.45
2022-08-02T02:45:25.151Z,72.71
2022-08-02T02:46:30.017Z,70.47
2022-08-02T02:47:40.702Z,70.91
2022-08-02T02:48:44.941Z,72.26
2022-08-02T02:49:49.150Z,72.47
2022-08-02T02:50:52.788Z,72.67
2022-08-02T02:51:56.006Z,72.77
2022-08-02T02:52:59.382Z,72.31
2022-08-02T02:54:33.587Z,72.86
2022-08-02T02:55:25.712Z,72.49
2022-08-02T02:56:28.695Z,70.87
2022-08-02T02:57:31.704Z,70.29
2022-08-02T02:58:34.764Z,71.29
2022-08-02T02:59:43.049Z,72.46
2022-08-02T03:01:11.749Z,72.22
2022-08-02T03:02:15.167Z,72.01
2022-08-02T03:03:19.595Z,69.91
2022-08-02T03:04:24.961Z,70.58
2022-08-02T03:05:27.845Z,71.33
2022-08-02T03:06:31.095Z,71.03
2022-08-02T03:07:34.614Z,71.38
2022-08-02T03:08:37.509Z,71.92
2022-08-02T03:09:40.420Z,72.00
2022-08-02T03:10:44.478Z,70.18
2022-08-02T03:11:47.763Z,69.40
2022-08-02T03:12:50.994Z,69.08
2022-08-02T03:13:53.871Z,69.52
2022-08-02T03:14:58.565Z,70.30
2022-08-02T03:16:01.859Z,70.47
2022-08-02T03:17:04.776Z,70.06
2022-08-02T03:18:10.501Z,70.62
2022-08-02T03:19:13.408Z,71.10
2022-08-02T03:20:17.571Z,71.51
2022-08-02T03:21:20.576Z,71.12
2022-08-02T03:22:23.442Z,71.92
2022-08-02T03:23:26.370Z,71.62
2022-08-02T03:24:29.212Z,71.67
2022-08-02T03:25:32.080Z,70.99
2022-08-02T03:26:35.433Z,69.44
2022-08-02T03:27:38.723Z,70.12
2022-08-02T03:28:41.837Z,71.02
2022-08-02T03:29:44.662Z,71.46
2022-08-02T03:30:47.541Z,71.43
2022-08-02T03:31:50.843Z,71.47
2022-08-02T03:32:53.817Z,70.40
2022-08-02T03:33:58.389Z,70.99
2022-08-02T03:35:01.676Z,71.13
2022-08-02T03:36:10.544Z,70.59
2022-08-02T03:37:13.977Z,70.04
2022-08-02T03:38:18.801Z,70.97
2022-08-02T03:39:22.507Z,70.17
2022-08-02T03:40:25.761Z,69.29
2022-08-02T03:41:29.699Z,70.67
2022-08-02T03:42:32.663Z,70.70
2022-08-02T03:43:36.814Z,70.61
2022-08-02T03:44:40.078Z,70.84
2022-08-02T03:45:44.198Z,71.02
2022-08-02T03:46:51.931Z,71.09
2022-08-02T03:47:58.791Z,70.22
2022-08-02T03:49:02.599Z,71.21
2022-08-02T03:50:06.927Z,70.83
2022-08-02T03:51:10.901Z,70.56
2022-08-02T03:52:14.669Z,70.72
2022-08-02T03:53:20.127Z,69.31
2022-08-02T03:54:23.625Z,70.38
2022-08-02T03:55:39.298Z,70.88
2022-08-02T03:56:42.210Z,70.79
2022-08-02T03:57:45.372Z,69.40
2022-08-02T03:58:49.439Z,69.35
2022-08-02T03:59:52.646Z,69.97
2022-08-02T04:00:56.675Z,70.34
2022-08-02T04:01:59.570Z,70.78
2022-08-02T04:03:07.006Z,70.88
2022-08-02T04:04:13.905Z,70.27
2022-08-02T04:05:17.349Z,70.54
2022-08-02T04:06:20.322Z,69.24
2022-08-02T04:08:35.208Z,69.11
2022-08-02T04:08:53.262Z,69.24
2022-08-02T04:09:56.109Z,70.30
2022-08-02T04:11:17.335Z,70.07
2022-08-02T04:12:20.415Z,68.60
2022-08-02T04:13:31.263Z,69.36
2022-08-02T04:14:36.605Z,68.50
2022-08-02T04:15:40.241Z,69.41
2022-08-02T04:16:43.060Z,69.65
2022-08-02T04:17:48.770Z,69.69
2022-08-02T04:18:54.084Z,67.75
2022-08-02T04:20:00.974Z,67.78
2022-08-02T04:21:04.942Z,68.30
2022-08-02T04:22:11.948Z,68.95
2022-08-02T04:23:16.701Z,68.42
2022-08-02T04:24:24.521Z,68.50
2022-08-02T04:25:35.502Z,68.85
2022-08-02T04:26:44.739Z,68.91
2022-08-02T04:28:17.732Z,68.83
2022-08-02T04:29:17.092Z,67.14
2022-08-02T04:30:20.485Z,67.42
2022-08-02T04:31:23.361Z,67.02
2022-08-02T04:32:27.284Z,66.71
2022-08-02T04:33:31.170Z,67.53
2022-08-02T04:34:34.518Z,67.84
2022-08-02T04:35:37.480Z,66.16
2022-08-02T04:36:40.553Z,65.89
2022-08-02T04:38:09.449Z,65.77
2022-08-02T04:39:07.249Z,66.39
2022-08-02T04:40:10.931Z,66.54
2022-08-02T04:41:13.828Z,66.97
2022-08-02T04:42:23.945Z,66.46
2022-08-02T04:43:26.858Z,65.81
2022-08-02T04:44:29.749Z,65.20
2022-08-02T04:45:32.782Z,65.44
2022-08-02T04:46:36.196Z,65.00
2022-08-02T04:48:02.531Z,65.32
2022-08-02T04:49:02.403Z,66.12
2022-08-02T04:50:08.300Z,66.38
2022-08-02T04:51:11.456Z,66.16
2022-08-02T04:52:14.706Z,65.97
2022-08-02T04:53:17.733Z,65.77
2022-08-02T04:54:20.727Z,64.83
2022-08-02T04:55:28.385Z,64.64
2022-08-02T04:56:31.397Z,64.58
2022-08-02T04:57:53.276Z,64.60
2022-08-02T04:58:56.443Z,64.79
2022-08-02T04:59:59.306Z,64.78
2022-08-02T05:01:02.394Z,64.70
2022-08-02T05:02:05.494Z,65.04
2022-08-02T05:03:08.394Z,64.36
2022-08-02T05:04:11.340Z,64.29
2022-08-02T05:05:14.410Z,64.52
2022-08-02T05:06:19.880Z,64.33
2022-08-02T05:07:23.033Z,64.43
2022-08-02T05:08:25.868Z,64.37
2022-08-02T05:09:28.772Z,64.00
2022-08-02T05:10:31.663Z,64.08
2022-08-02T05:11:36.783Z,64.14
2022-08-02T05:12:41.568Z,64.20
2022-08-02T05:13:57.561Z,63.72
2022-08-02T05:15:00.900Z,63.42
2022-08-02T05:16:04.664Z,63.41
2022-08-02T05:17:07.645Z,63.58
2022-08-02T05:18:10.692Z,63.54
2022-08-02T05:19:14.450Z,63.64
2022-08-02T05:20:17.912Z,63.66
2022-08-02T05:21:21.071Z,63.72
2022-08-02T05:22:24.120Z,63.40
2022-08-02T05:23:29.071Z,62.91
2022-08-02T05:24:31.979Z,62.65
2022-08-02T05:25:34.874Z,62.43
2022-08-02T05:26:37.827Z,62.25
2022-08-02T05:27:40.840Z,62.01
2022-08-02T05:28:43.858Z,61.69
2022-08-02T05:29:51.191Z,61.77
2022-08-02T05:30:56.550Z,61.91
2022-08-02T05:31:59.408Z,61.86
2022-08-02T05:33:02.623Z,61.86
2022-08-02T05:34:08.670Z,61.88
2022-08-02T05:35:17.699Z,61.79
2022-08-02T05:36:21.613Z,61.81
2022-08-02T05:37:24.709Z,61.60
2022-08-02T05:38:31.226Z,61.46
2022-08-02T05:39:34.877Z,61.26
2022-08-02T05:40:46.673Z,60.57
2022-08-02T05:41:57.985Z,60.11
2022-08-02T05:43:00.896Z,60.41
2022-08-02T05:44:04.412Z,60.57
2022-08-02T05:45:07.525Z,60.75
2022-08-02T05:46:10.450Z,60.86
2022-08-02T05:47:13.302Z,60.68
2022-08-02T05:48:16.198Z,60.65
2022-08-02T05:49:19.304Z,60.50
2022-08-02T05:50:24.312Z,59.55
2022-08-02T05:51:43.005Z,59.43
2022-08-02T05:52:48.603Z,59.68
2022-08-02T05:53:59.228Z,59.43
2022-08-02T05:55:06.419Z,60.09
2022-08-02T05:56:24.501Z,59.09
2022-08-02T05:57:46.140Z,59.87
2022-08-02T05:59:09.902Z,60.13
2022-08-02T06:00:14.074Z,60.20
2022-08-02T06:01:24.088Z,60.03
2022-08-02T06:02:30.874Z,59.80
2022-08-02T06:03:44.417Z,60.47
2022-08-02T06:04:56.822Z,59.92
2022-08-02T06:06:00.681Z,60.71
2022-08-02T06:07:06.589Z,59.87
2022-08-02T06:08:10.305Z,59.81
2022-08-02T06:09:23.243Z,59.88
2022-08-02T06:10:30.413Z,60.97
2022-08-02T06:11:35.724Z,60.75
2022-08-02T06:12:47.196Z,60.55
2022-08-02T06:13:51.674Z,59.67
2022-08-02T06:14:54.938Z,60.97
2022-08-02T06:15:59.542Z,60.83
2022-08-02T06:17:05.763Z,61.02
2022-08-02T06:18:08.979Z,60.97
2022-08-02T06:19:12.265Z,61.17
2022-08-02T06:20:15.610Z,61.20
2022-08-02T06:22:35.297Z,60.85
2022-08-02T06:22:45.441Z,60.22
2022-08-02T06:23:59.226Z,60.23
2022-08-02T06:25:02.718Z,60.01
2022-08-02T06:26:06.804Z,58.84
2022-08-02T06:27:10.043Z,58.90
2022-08-02T06:28:13.933Z,59.30
2022-08-02T06:29:17.288Z,57.56
2022-08-02T06:30:20.216Z,57.30
2022-08-02T06:31:23.198Z,58.97
2022-08-02T06:32:26.915Z,59.54
2022-08-02T06:33:29.733Z,59.00
2022-08-02T06:34:36.337Z,59.19
2022-08-02T06:35:54.066Z,59.26
2022-08-02T06:37:05.839Z,59.27
2022-08-02T06:38:10.324Z,58.75
2022-08-02T06:39:16.478Z,59.52
2022-08-02T06:40:22.316Z,59.20
2022-08-02T06:41:26.356Z,59.42
2022-08-02T06:42:44.336Z,59.51
2022-08-02T06:43:53.560Z,59.42
2022-08-02T06:44:58.138Z,59.21
2022-08-02T06:46:34.490Z,59.13
2022-08-02T06:47:24.823Z,58.19
2022-08-02T06:48:27.701Z,57.55
2022-08-02T06:49:52.130Z,55.84
2022-08-02T06:50:53.514Z,58.01
2022-08-02T06:51:56.627Z,58.09
2022-08-02T06:53:00.525Z,58.12
2022-08-02T06:54:03.508Z,57.87
2022-08-02T06:55:07.411Z,57.84
2022-08-02T06:56:10.711Z,55.97
2022-08-02T06:57:15.505Z,54.61
2022-08-02T06:58:18.386Z,54.43
2022-08-02T06:59:21.262Z,56.14
2022-08-02T07:00:24.274Z,56.53
2022-08-02T07:01:27.329Z,56.57
2022-08-02T07:02:41.879Z,56.20
2022-08-02T07:03:44.760Z,56.25
2022-08-02T07:04:47.748Z,55.64
2022-08-02T07:05:50.569Z,56.09
2022-08-02T07:06:53.922Z,53.79
2022-08-02T07:07:57.093Z,55.00
2022-08-02T07:09:20.160Z,55.42
2022-08-02T07:10:24.337Z,53.47
2022-08-02T07:11:27.170Z,53.95
2022-08-02T07:12:31.129Z,54.58
2022-08-02T07:13:39.295Z,54.80
2022-08-02T07:14:42.645Z,54.86
2022-08-02T07:15:49.160Z,52.62
2022-08-02T07:16:53.550Z,53.71
2022-08-02T07:17:59.139Z,53.62
2022-08-02T07:19:03.387Z,53.51
2022-08-02T07:20:06.652Z,54.58
2022-08-02T07:21:09.625Z,54.93
2022-08-02T07:22:13.249Z,53.65
2022-08-02T07:23:18.034Z,53.66
2022-08-02T07:24:21.092Z,53.56
2022-08-02T07:25:24.030Z,53.27
2022-08-02T07:26:26.655Z,53.64
2022-08-02T07:27:30.126Z,53.81
2022-08-02T07:28:33.202Z,53.55
2022-08-02T07:29:45.187Z,52.74
2022-08-02T07:30:49.834Z,52.59
2022-08-02T07:31:52.814Z,52.82
2022-08-02T07:32:55.666Z,52.12
2022-08-02T07:33:58.473Z,51.78
2022-08-02T07:35:06.449Z,52.21
2022-08-02T07:36:17.055Z,49.75
2022-08-02T07:37:53.239Z,49.54
2022-08-02T07:38:49.958Z,51.34
2022-08-02T07:39:52.827Z,51.63
2022-08-02T07:40:56.355Z,51.59
2022-08-02T07:41:59.475Z,51.65
2022-08-02T07:43:04.114Z,51.50
2022-08-02T07:44:13.038Z,49.65
2022-08-02T07:45:16.150Z,50.92
2022-08-02T07:46:19.148Z,50.50
2022-08-02T07:47:22.023Z,50.14
2022-08-02T07:48:24.925Z,50.02
2022-08-02T07:49:28.145Z,49.30
2022-08-02T07:50:31.086Z,49.22
2022-08-02T07:51:36.643Z,49.20
2022-08-02T07:52:40.525Z,49.62
2022-08-02T07:53:50.648Z,49.25
2022-08-02T07:54:54.918Z,49.72
2022-08-02T07:55:57.809Z,48.54
2022-08-02T07:57:01.199Z,47.39
2022-08-02T07:58:04.918Z,48.89
2022-08-02T07:59:07.824Z,47.66
2022-08-02T08:00:11.047Z,48.79
2022-08-02T08:01:18.137Z,49.69
2022-08-02T08:02:21.536Z,49.36
2022-08-02T08:03:24.207Z,49.04
2022-08-02T08:04:27.032Z,49.22
2022-08-02T08:05:29.661Z,49.44
2022-08-02T08:06:32.451Z,49.63
2022-08-02T08:07:35.436Z,49.56
2022-08-02T08:08:38.611Z,49.40
2022-08-02T08:09:45.244Z,49.61
2022-08-02T08:10:48.224Z,49.69
2022-08-02T08:11:51.266Z,49.61
2022-08-02T08:12:55.287Z,48.35
2022-08-02T08:13:58.168Z,48.85
2022-08-02T08:15:01.022Z,49.29
2022-08-02T08:16:04.209Z,49.49
2022-08-02T08:17:07.437Z,49.59
2022-08-02T08:18:10.543Z,49.09
2022-08-02T08:19:15.312Z,48.87
2022-08-02T08:20:18.686Z,47.53
2022-08-02T08:21:21.737Z,45.88
2022-08-02T08:22:24.703Z,47.91
2022-08-02T08:23:27.782Z,48.26
2022-08-02T08:24:30.834Z,48.13
2022-08-02T08:25:39.858Z,48.39
2022-08-02T08:26:44.529Z,48.13
2022-08-02T08:27:48.302Z,48.13
2022-08-02T08:28:51.361Z,48.13
2022-08-02T08:29:54.291Z,48.22
2022-08-02T08:30:57.454Z,47.76
2022-08-02T08:32:00.313Z,47.85
2022-08-02T08:33:04.467Z,47.49
2022-08-02T08:34:07.462Z,47.44
2022-08-02T08:35:10.467Z,47.68
2022-08-02T08:36:13.522Z,47.08
2022-08-02T08:37:17.683Z,46.19
2022-08-02T08:38:21.526Z,46.39
2022-08-02T08:39:25.982Z,47.07
2022-08-02T08:40:29.112Z,47.41
2022-08-02T08:41:32.168Z,47.54
2022-08-02T08:42:37.810Z,47.50
2022-08-02T08:43:41.427Z,47.02
2022-08-02T08:44:45.178Z,47.00
2022-08-02T08:45:56.183Z,47.00
2022-08-02T08:47:00.953Z,46.13
2022-08-02T08:48:10.387Z,44.20
2022-08-02T08:49:19.650Z,43.48
2022-08-02T08:50:25.590Z,45.12
2022-08-02T08:51:37.346Z,45.49
2022-08-02T08:52:42.425Z,44.74
2022-08-02T08:53:47.496Z,44.96
2022-08-02T08:54:50.696Z,45.41
2022-08-02T08:55:56.464Z,45.72
2022-08-02T08:56:59.884Z,45.84
2022-08-02T08:58:03.311Z,44.57
2022-08-02T08:59:06.770Z,45.48
2022-08-02T09:00:11.229Z,45.77
2022-08-02T09:01:15.419Z,45.71
2022-08-02T09:02:21.389Z,45.37
2022-08-02T09:03:26.587Z,44.91
2022-08-02T09:04:36.808Z,45.28
2022-08-02T09:05:40.645Z,45.39
2022-08-02T09:06:43.724Z,45.34
2022-08-02T09:07:50.318Z,45.17
2022-08-02T09:08:53.239Z,45.38
2022-08-02T09:09:56.095Z,44.87
2022-08-02T09:10:59.525Z,45.14
2022-08-02T09:12:15.708Z,44.49
2022-08-02T09:13:37.983Z,45.01
2022-08-02T09:14:49.930Z,45.17
2022-08-02T09:16:11.372Z,44.66
2022-08-02T09:17:16.430Z,44.59
2022-08-02T09:18:19.296Z,44.35
2022-08-02T09:19:26.537Z,44.04
2022-08-02T09:20:30.865Z,43.96
2022-08-02T09:21:35.044Z,42.19
2022-08-02T09:22:38.467Z,42.01
2022-08-02T09:23:45.409Z,42.91
2022-08-02T09:24:49.227Z,41.48
2022-08-02T09:26:00.324Z,41.99
2022-08-02T09:27:10.609Z,42.77
2022-08-02T09:28:15.041Z,42.99
2022-08-02T09:29:22.580Z,42.77
2022-08-02T09:30:28.376Z,42.41
2022-08-02T09:31:34.130Z,42.43
2022-08-02T09:32:48.140Z,42.76
2022-08-02T09:33:55.389Z,42.12
2022-08-02T09:34:58.466Z,42.04
2022-08-02T09:36:06.102Z,42.06
2022-08-02T09:37:23.588Z,42.14
2022-08-02T09:38:26.977Z,42.26
2022-08-02T09:39:47.470Z,42.01
2022-08-02T09:40:51.190Z,41.53
2022-08-02T09:42:08.344Z,41.02
2022-08-02T09:43:11.438Z,40.29
2022-08-02T09:44:16.249Z,40.98
2022-08-02T09:45:19.902Z,38.47
2022-08-02T09:46:24.681Z,36.96
2022-08-02T09:47:28.338Z,38.80
2022-08-02T09:48:34.047Z,39.44
2022-08-02T09:49:45.610Z,39.75
2022-08-02T09:50:56.430Z,40.07
2022-08-02T09:52:01.675Z,39.64
2022-08-02T09:53:04.810Z,39.34
2022-08-02T09:54:09.731Z,38.61
2022-08-02T09:55:13.076Z,38.96
2022-08-02T09:56:35.185Z,38.49
2022-08-02T09:57:38.970Z,39.29
2022-08-02T09:58:44.896Z,39.53
2022-08-02T09:59:55.571Z,39.56
2022-08-02T10:00:59.239Z,40.24
2022-08-02T10:02:17.524Z,40.56
2022-08-02T10:03:23.073Z,40.77
2022-08-02T10:04:34.286Z,40.97
2022-08-02T10:06:02.345Z,41.25
2022-08-02T10:07:06.668Z,41.44
2022-08-02T10:08:09.829Z,41.65
2022-08-02T10:09:15.791Z,41.76
2022-08-02T10:10:18.973Z,41.58
2022-08-02T10:11:22.760Z,41.72
2022-08-02T10:12:26.717Z,41.42
2022-08-02T10:13:30.832Z,41.34
2022-08-02T10:14:34.773Z,41.86
2022-08-02T10:15:38.584Z,41.50
2022-08-02T10:16:54.772Z,41.11
2022-08-02T10:17:58.088Z,41.48
2022-08-02T10:19:04.384Z,41.45
2022-08-02T10:20:07.508Z,41.52
2022-08-02T10:21:12.648Z,41.67
2022-08-02T10:22:17.685Z,41.68
2022-08-02T10:23:25.928Z,41.59
2022-08-02T10:24:30.623Z,41.68
2022-08-02T10:25:36.495Z,41.86
2022-08-02T10:26:40.883Z,42.00
2022-08-02T10:28:04.362Z,41.87
2022-08-02T10:29:09.624Z,42.15
2022-08-02T10:30:12.700Z,42.36
2022-08-02T10:31:19.160Z,42.49
2022-08-02T10:32:26.762Z,42.61
2022-08-02T10:33:30.316Z,42.73
2022-08-02T10:34:38.185Z,42.69
2022-08-02T10:35:41.685Z,42.35
2022-08-02T10:36:45.542Z,42.38
2022-08-02T10:37:51.012Z,42.55
2022-08-02T10:38:55.631Z,42.65
2022-08-02T10:39:59.271Z,42.69
2022-08-02T10:41:02.187Z,42.35
2022-08-02T10:42:05.258Z,42.31
2022-08-02T10:43:08.146Z,42.48
2022-08-02T10:44:30.675Z,42.62
2022-08-02T10:45:34.832Z,42.59
2022-08-02T10:46:37.840Z,42.97
2022-08-02T10:47:56.288Z,42.62
2022-08-02T10:49:29.691Z,42.56
2022-08-02T10:50:46.658Z,42.93
2022-08-02T10:51:55.169Z,43.10
2022-08-02T10:53:16.562Z,43.12
2022-08-02T10:54:20.896Z,43.14
2022-08-02T10:55:24.561Z,43.38
2022-08-02T10:56:45.970Z,43.51
2022-08-02T10:58:08.902Z,42.77
2022-08-02T10:59:28.479Z,42.88
2022-08-02T11:00:31.421Z,42.84
2022-08-02T11:01:43.574Z,42.76
2022-08-02T11:02:47.268Z,42.74
2022-08-02T11:04:00.146Z,42.62
2022-08-02T11:05:05.441Z,42.82
2022-08-02T11:06:25.250Z,42.49
2022-08-02T11:07:33.101Z,42.78
2022-08-02T11:08:36.417Z,42.33
2022-08-02T11:09:39.791Z,42.86
2022-08-02T11:10:42.695Z,42.49
2022-08-02T11:12:04.449Z,42.58
2022-08-02T11:13:08.995Z,42.64
2022-08-02T11:14:14.230Z,42.45
2022-08-02T11:15:18.706Z,42.44
2022-08-02T11:16:21.536Z,42.49
2022-08-02T11:17:25.203Z,42.54
2022-08-02T11:18:54.242Z,42.45
2022-08-02T11:20:12.769Z,42.18
2022-08-02T11:21:28.006Z,42.31
2022-08-02T11:22:31.096Z,42.39
2022-08-02T11:23:44.923Z,42.36
2022-08-02T11:24:48.990Z,42.41
2022-08-02T11:26:03.592Z,41.95
2022-08-02T11:27:18.592Z,41.96
2022-08-02T11:28:25.972Z,41.89
2022-08-02T11:29:58.313Z,41.63
2022-08-02T11:31:02.684Z,40.88
2022-08-02T11:32:15.136Z,40.64
2022-08-02T11:33:18.525Z,40.77
2022-08-02T11:34:37.218Z,40.77
2022-08-02T11:35:41.480Z,41.06
2022-08-02T11:36:45.455Z,41.09
2022-08-02T11:37:48.697Z,41.14
2022-08-02T11:39:09.005Z,40.97
2022-08-02T11:40:19.677Z,41.00
2022-08-02T11:41:46.080Z,40.14
2022-08-02T11:42:47.299Z,39.92
2022-08-02T11:43:56.611Z,39.47
2022-08-02T11:45:00.016Z,39.77
2022-08-02T11:46:03.960Z,39.52
2022-08-02T11:47:09.795Z,39.90
2022-08-02T11:48:12.832Z,40.07
2022-08-02T11:49:19.556Z,39.95
2022-08-02T11:50:30.449Z,39.71
2022-08-02T11:51:33.556Z,39.36
2022-08-02T11:52:37.694Z,39.24
2022-08-02T11:53:43.854Z,39.48
2022-08-02T11:54:49.167Z,39.59
2022-08-02T11:55:56.875Z,39.82
2022-08-02T11:57:16.875Z,39.92
2022-08-02T11:58:22.033Z,40.02
2022-08-02T11:59:24.960Z,40.20
2022-08-02T12:00:30.737Z,40.38
2022-08-02T12:01:44.791Z,40.30
2022-08-02T12:02:49.338Z,40.16
2022-08-02T12:03:52.481Z,39.94
2022-08-02T12:04:58.359Z,40.37
2022-08-02T12:06:06.338Z,40.19
2022-08-02T12:07:10.378Z,40.27
2022-08-02T12:08:13.608Z,40.47
2022-08-02T12:09:18.238Z,40.46
2022-08-02T12:10:23.794Z,40.51
2022-08-02T12:11:26.695Z,40.33
2022-08-02T12:12:49.465Z,39.54
2022-08-02T12:13:56.861Z,40.17
2022-08-02T12:15:00.393Z,39.72
2022-08-02T12:16:29.794Z,40.25
2022-08-02T12:17:51.046Z,40.19
2022-08-02T12:19:12.867Z,40.88
2022-08-02T12:20:17.425Z,40.95
2022-08-02T12:21:22.106Z,41.05
2022-08-02T12:22:27.403Z,41.33
2022-08-02T12:23:32.091Z,41.38
2022-08-02T12:24:35.232Z,40.61
2022-08-02T12:25:38.168Z,40.30
2022-08-02T12:26:44.883Z,40.33
2022-08-02T12:27:48.027Z,39.79
2022-08-02T12:29:01.505Z,38.68
2022-08-02T12:30:09.488Z,39.67
2022-08-02T12:31:15.561Z,40.29
2022-08-02T12:32:23.712Z,40.12
2022-08-02T12:33:28.426Z,40.11
2022-08-02T12:34:32.577Z,39.93
2022-08-02T12:35:36.044Z,38.72
2022-08-02T12:36:40.035Z,38.41
2022-08-02T12:37:45.790Z,38.95
2022-08-02T12:38:58.546Z,38.56
2022-08-02T12:40:37.393Z,36.80
2022-08-02T12:41:54.700Z,38.07
2022-08-02T12:43:05.356Z,38.44
2022-08-02T12:44:16.572Z,38.18
2022-08-02T12:45:23.351Z,37.07
2022-08-02T12:46:26.340Z,37.48
2022-08-02T12:47:35.642Z,37.13
2022-08-02T12:48:56.611Z,37.04
2022-08-02T12:50:20.859Z,37.26
2022-08-02T12:51:25.159Z,37.27
2022-08-02T12:52:48.802Z,38.03
2022-08-02T12:53:59.596Z,38.19
2022-08-02T12:55:24.255Z,38.39
2022-08-02T12:56:33.611Z,38.51
2022-08-02T12:57:50.577Z,38.41
2022-08-02T12:58:53.871Z,39.08
2022-08-02T12:59:56.824Z,39.34
2022-08-02T13:01:00.963Z,38.84
2022-08-02T13:02:05.461Z,39.66
2022-08-02T13:04:07.520Z,39.75
2022-08-02T13:04:31.721Z,40.26
2022-08-02T13:05:57.239Z,40.59
2022-08-02T13:06:58.772Z,40.41
2022-08-02T13:08:02.153Z,40.20
2022-08-02T13:09:12.574Z,39.50
2022-08-02T13:10:15.905Z,39.48
2022-08-02T13:11:18.795Z,38.56
2022-08-02T13:12:21.743Z,39.45
2022-08-02T13:13:24.672Z,39.13
2022-08-02T13:14:27.936Z,38.54
2022-08-02T13:15:49.666Z,39.29
2022-08-02T13:16:54.062Z,39.86
2022-08-02T13:17:59.153Z,39.79
2022-08-02T13:19:02.063Z,39.30
2022-08-02T13:20:05.584Z,39.04
2022-08-02T13:21:19.725Z,39.78
2022-08-02T13:22:36.626Z,39.47
2022-08-02T13:23:54.895Z,39.60
2022-08-02T13:24:58.286Z,39.72
2022-08-02T13:26:01.362Z,38.94
2022-08-02T13:27:08.313Z,37.74
2022-08-02T13:28:12.118Z,37.78
2022-08-02T13:29:15.010Z,37.30
2022-08-02T13:30:18.293Z,37.18
2022-08-02T13:31:36.279Z,37.29
2022-08-02T13:32:40.095Z,37.79
2022-08-02T13:33:43.135Z,37.55
2022-08-02T13:34:46.155Z,38.31
2022-08-02T13:35:49.735Z,38.56
2022-08-02T13:36:52.672Z,38.53
2022-08-02T13:37:55.807Z,38.38
2022-08-02T13:38:58.752Z,38.36
2022-08-02T13:41:24.701Z,37.43
2022-08-02T13:42:27.651Z,37.11
2022-08-02T13:43:52.659Z,36.69
2022-08-02T13:44:53.732Z,35.78
2022-08-02T13:45:56.749Z,36.17
2022-08-02T13:46:59.619Z,35.30
2022-08-02T13:48:05.452Z,36.00
2022-08-02T13:49:21.673Z,35.40
2022-08-02T13:50:25.557Z,34.52
2022-08-02T13:51:31.700Z,34.14
2022-08-02T13:52:40.203Z,32.99
2022-08-02T13:53:43.159Z,35.07
2022-08-02T13:54:46.269Z,33.51
2022-08-02T13:55:53.353Z,33.16
2022-08-02T13:56:59.147Z,33.73
2022-08-02T13:58:02.377Z,33.40
2022-08-02T13:59:54.052Z,33.97
2022-08-02T14:00:34.666Z,32.28
2022-08-02T14:01:39.305Z,32.96
2022-08-02T14:02:42.276Z,33.02
2022-08-02T14:04:08.358Z,32.22
2022-08-02T14:05:08.811Z,30.31
2022-08-02T14:06:12.205Z,30.59
2022-08-02T14:07:16.154Z,31.11
2022-08-02T14:08:20.160Z,30.46
2022-08-02T14:09:23.034Z,29.76
2022-08-02T14:10:26.620Z,28.90
2022-08-02T14:11:33.688Z,29.47
2022-08-02T14:12:36.732Z,29.44
2022-08-02T14:13:39.675Z,27.95
2022-08-02T14:14:42.666Z,29.91
2022-08-02T14:15:46.333Z,29.54
2022-08-02T14:16:49.513Z,30.05
2022-08-02T14:17:52.422Z,29.97
2022-08-02T14:18:57.290Z,29.91
2022-08-02T14:20:00.173Z,28.05